Terminal Aerodrome Forecast
Issued by NWS

Home | Current Version | Previous Version | Text Only | Print | Product List | Glossary On
Versions: 1 2 3 4 5 6 7 8 9 10 11 12 13 14 15 16 17 18 19 20 21 22 23
211
FTUS46 KLOX 200238 AAB
TAFLGB
TAF AMD
KLGB 200238Z 2003/2024 28010KT P6SM BKN020 BKN035
     FM201000 29008KT P6SM VCSH BKN020 BKN090
     FM201500 15012KT 5SM -RA BR BKN025 OVC040
     FM201900 16012G20KT 2SM RA BR BKN007 OVC015
     FM202300 27020G30KT 4SM -RA BR BKN015 OVC025=

USA.gov is the U.S. government's official web portal to all federal, state and local government web resources and services.